createdAt,value
2017-06-27T00:00:54.422Z,76.10
2017-06-27T00:03:22.697Z,76.00
2017-06-27T00:05:51.055Z,79.50
2017-06-27T00:08:20.073Z,82.10
2017-06-27T00:10:48.404Z,81.90
2017-06-27T00:13:16.687Z,76.20
2017-06-27T00:15:44.940Z,77.70
2017-06-27T00:18:13.233Z,76.70
2017-06-27T00:20:41.479Z,77.50
2017-06-27T00:23:09.763Z,75.70
2017-06-27T00:25:38.017Z,76.40
2017-06-27T00:28:06.300Z,75.70
2017-06-27T00:30:34.550Z,76.00
2017-06-27T00:33:03.713Z,77.80
2017-06-27T00:35:31.978Z,77.90
2017-06-27T00:38:00.249Z,75.60
2017-06-27T00:40:28.539Z,76.50
2017-06-27T00:42:56.824Z,74.90
2017-06-27T00:45:25.145Z,75.60
2017-06-27T00:47:53.405Z,77.40
2017-06-27T00:50:21.745Z,78.70
2017-06-27T00:52:50.120Z,77.50
2017-06-27T00:55:18.388Z,75.90
2017-06-27T00:57:46.780Z,76.90
2017-06-27T01:00:15.055Z,77.60
2017-06-27T01:02:43.342Z,75.50
2017-06-27T01:05:11.604Z,76.30
2017-06-27T01:07:39.866Z,75.30
2017-06-27T01:10:08.260Z,75.10
2017-06-27T01:12:36.506Z,76.60
2017-06-27T01:15:04.792Z,81.80
2017-06-27T01:17:33.042Z,82.00
2017-06-27T01:20:01.332Z,77.80
2017-06-27T01:22:29.580Z,76.60
2017-06-27T01:24:57.870Z,77.30
2017-06-27T01:27:26.158Z,76.60
2017-06-27T01:29:54.412Z,76.30
2017-06-27T01:32:22.703Z,79.50
2017-06-27T01:34:50.999Z,81.70
2017-06-27T01:37:19.381Z,80.40
2017-06-27T01:39:47.638Z,78.30
2017-06-27T01:42:15.933Z,76.30
2017-06-27T01:44:44.191Z,80.30
2017-06-27T01:47:12.469Z,77.50
2017-06-27T01:49:40.751Z,77.40
2017-06-27T01:52:09.013Z,79.60
2017-06-27T01:54:37.287Z,77.80
2017-06-27T01:57:05.555Z,79.90
2017-06-27T01:59:33.976Z,78.80
2017-06-27T02:02:02.350Z,80.90
2017-06-27T02:04:30.630Z,78.00
2017-06-27T02:06:58.919Z,81.40
2017-06-27T02:09:27.180Z,80.30
2017-06-27T02:11:55.454Z,81.40
2017-06-27T02:14:23.724Z,79.30
2017-06-27T02:16:51.996Z,80.90
2017-06-27T02:19:20.290Z,80.50
2017-06-27T02:21:48.545Z,81.90
2017-06-27T02:24:16.832Z,82.90
2017-06-27T02:26:45.106Z,85.70
2017-06-27T02:29:13.377Z,82.40
2017-06-27T02:31:41.670Z,82.30
2017-06-27T02:34:09.931Z,85.20
2017-06-27T02:36:38.311Z,87.00
2017-06-27T02:39:06.565Z,83.30
2017-06-27T02:41:34.902Z,87.40
2017-06-27T02:44:03.276Z,84.70
2017-06-27T02:46:31.562Z,86.30
2017-06-27T02:48:59.862Z,87.80
2017-06-27T02:51:28.140Z,83.60
2017-06-27T02:53:57.203Z,86.10
2017-06-27T02:56:25.472Z,86.20
2017-06-27T02:58:53.745Z,85.90
2017-06-27T03:01:22.131Z,81.70
2017-06-27T03:03:50.398Z,87.50
2017-06-27T03:06:18.683Z,81.90
2017-06-27T03:08:46.964Z,81.80
2017-06-27T03:11:15.216Z,83.50
2017-06-27T03:13:43.610Z,82.90
2017-06-27T03:16:11.911Z,86.50
2017-06-27T03:18:40.163Z,82.00
2017-06-27T03:21:08.435Z,83.50
2017-06-27T03:23:36.683Z,87.40
2017-06-27T03:26:05.209Z,86.50
2017-06-27T03:28:33.460Z,83.10
2017-06-27T03:31:01.768Z,88.20
2017-06-27T03:33:30.146Z,83.20
2017-06-27T03:35:58.408Z,87.00
2017-06-27T03:38:26.712Z,89.20
2017-06-27T03:40:54.958Z,88.80
2017-06-27T03:43:23.229Z,83.40
2017-06-27T03:45:51.533Z,82.80
2017-06-27T03:48:19.788Z,81.90
2017-06-27T03:50:48.088Z,87.20
2017-06-27T03:53:16.372Z,85.30
2017-06-27T03:55:44.630Z,87.20
2017-06-27T03:58:12.992Z,83.80
2017-06-27T04:00:41.257Z,85.70
2017-06-27T04:03:09.555Z,82.30
2017-06-27T04:05:37.826Z,81.20
2017-06-27T04:08:06.085Z,79.60
2017-06-27T04:10:34.399Z,81.60
2017-06-27T04:13:02.664Z,82.40
2017-06-27T04:15:30.968Z,82.60
2017-06-27T04:17:59.230Z,81.10
2017-06-27T04:20:27.487Z,80.10
2017-06-27T04:22:55.779Z,79.70
2017-06-27T04:25:24.053Z,79.20
2017-06-27T04:27:52.351Z,78.60
2017-06-27T04:30:20.698Z,79.40
2017-06-27T04:32:48.967Z,81.20
2017-06-27T04:35:17.254Z,78.30
2017-06-27T04:37:45.516Z,80.00
2017-06-27T04:40:13.929Z,79.30
2017-06-27T04:42:42.197Z,75.30
2017-06-27T04:45:10.450Z,77.40
2017-06-27T04:47:38.731Z,77.00
2017-06-27T04:50:07.029Z,76.70
2017-06-27T04:52:35.334Z,77.70
2017-06-27T04:55:03.594Z,77.70
2017-06-27T04:57:31.855Z,80.20
2017-06-27T05:00:00.148Z,77.90
2017-06-27T05:02:28.426Z,78.20
2017-06-27T05:04:56.820Z,78.10
2017-06-27T05:07:25.082Z,78.50
2017-06-27T05:09:53.375Z,81.50
2017-06-27T05:12:21.679Z,80.00
2017-06-27T05:14:50.719Z,78.80
2017-06-27T05:17:19.016Z,78.60
2017-06-27T05:19:47.299Z,77.90
2017-06-27T05:22:15.567Z,76.30
2017-06-27T05:24:43.959Z,77.20
2017-06-27T05:27:12.212Z,76.80
2017-06-27T05:29:40.516Z,76.20
2017-06-27T05:32:08.763Z,78.50
2017-06-27T05:34:37.069Z,77.70
2017-06-27T05:37:05.339Z,77.80
2017-06-27T05:39:33.614Z,76.40
2017-06-27T05:42:01.944Z,76.20
2017-06-27T05:44:30.279Z,77.70
2017-06-27T05:46:58.545Z,77.30
2017-06-27T05:49:26.935Z,74.80
2017-06-27T05:51:55.193Z,74.90
2017-06-27T05:54:23.498Z,76.30
2017-06-27T05:56:51.795Z,74.50
2017-06-27T05:59:20.860Z,76.20
2017-06-27T06:01:49.157Z,75.20
2017-06-27T06:04:18.256Z,74.20
2017-06-27T06:06:47.351Z,73.70
2017-06-27T06:09:15.617Z,73.60
2017-06-27T06:11:43.884Z,74.10
2017-06-27T06:14:12.168Z,73.20
2017-06-27T06:16:40.547Z,74.30
2017-06-27T06:19:08.866Z,72.20
2017-06-27T06:21:37.208Z,71.10
2017-06-27T06:24:05.586Z,70.40
2017-06-27T06:26:33.874Z,70.60
2017-06-27T06:29:02.938Z,71.40
2017-06-27T06:31:31.303Z,70.90
2017-06-27T06:33:59.599Z,71.20
2017-06-27T06:36:27.875Z,70.30
2017-06-27T06:38:56.263Z,69.60
2017-06-27T06:41:24.524Z,68.90
2017-06-27T06:43:52.898Z,69.90
2017-06-27T06:46:21.205Z,67.60
2017-06-27T06:48:49.479Z,70.40
2017-06-27T06:51:17.795Z,70.10
2017-06-27T06:53:46.127Z,69.70
2017-06-27T06:56:14.411Z,69.80
2017-06-27T06:58:42.703Z,66.30
2017-06-27T07:01:10.959Z,71.10
2017-06-27T07:03:39.251Z,66.00
2017-06-27T07:06:07.524Z,67.60
2017-06-27T07:08:35.837Z,64.40
2017-06-27T07:11:04.103Z,65.80
2017-06-27T07:13:33.160Z,62.40
2017-06-27T07:16:01.541Z,62.30
2017-06-27T07:18:29.805Z,62.60
2017-06-27T07:20:58.120Z,62.20
2017-06-27T07:23:26.375Z,63.80
2017-06-27T07:25:54.652Z,60.90
2017-06-27T07:28:22.948Z,64.00
2017-06-27T07:30:52.026Z,61.60
2017-06-27T07:33:20.403Z,61.50
2017-06-27T07:35:48.776Z,60.80
2017-06-27T07:38:17.030Z,63.80
2017-06-27T07:40:45.438Z,63.70
2017-06-27T07:43:13.686Z,59.80
2017-06-27T07:45:41.942Z,59.30
2017-06-27T07:48:10.210Z,59.40
2017-06-27T07:50:38.532Z,60.90
2017-06-27T07:53:06.861Z,59.00
2017-06-27T07:55:35.882Z,58.10
2017-06-27T07:58:04.211Z,58.10
2017-06-27T08:00:32.510Z,60.00
2017-06-27T08:03:01.542Z,57.00
2017-06-27T08:05:29.846Z,57.00
2017-06-27T08:07:58.108Z,59.20
2017-06-27T08:10:26.363Z,56.50
2017-06-27T08:12:54.648Z,56.10
2017-06-27T08:15:22.907Z,57.20
2017-06-27T08:17:51.206Z,57.50
2017-06-27T08:20:19.472Z,56.80
2017-06-27T08:22:47.742Z,56.50
2017-06-27T08:25:16.016Z,56.10
2017-06-27T08:27:44.279Z,54.70
2017-06-27T08:30:12.601Z,55.50
2017-06-27T08:32:40.877Z,56.90
2017-06-27T08:35:09.145Z,57.20
2017-06-27T08:37:37.414Z,57.20
2017-06-27T08:40:05.682Z,57.40
2017-06-27T08:42:33.964Z,56.60
2017-06-27T08:45:02.224Z,55.00
2017-06-27T08:47:30.493Z,55.40
2017-06-27T08:49:58.783Z,54.30
2017-06-27T08:52:27.052Z,54.30
2017-06-27T08:54:55.359Z,54.40
2017-06-27T08:57:23.621Z,54.00
2017-06-27T08:59:51.892Z,54.20
2017-06-27T09:02:20.168Z,54.70
2017-06-27T09:04:48.449Z,54.60
2017-06-27T09:07:16.763Z,53.60
2017-06-27T09:09:45.021Z,54.00
2017-06-27T09:12:13.355Z,53.50
2017-06-27T09:14:42.400Z,52.30
2017-06-27T09:17:10.726Z,52.20
2017-06-27T09:19:39.774Z,52.60
2017-06-27T09:22:08.054Z,52.60
2017-06-27T09:24:36.309Z,52.90
2017-06-27T09:27:04.592Z,52.10
2017-06-27T09:29:32.838Z,51.80
2017-06-27T09:32:01.147Z,51.10
2017-06-27T09:34:29.408Z,52.20
2017-06-27T09:36:57.681Z,53.00
2017-06-27T09:39:25.958Z,53.30
2017-06-27T09:41:54.220Z,53.10
2017-06-27T09:44:22.505Z,51.40
2017-06-27T09:46:50.754Z,51.00
2017-06-27T09:49:19.804Z,50.90
2017-06-27T09:51:48.064Z,50.90
2017-06-27T09:54:16.368Z,50.20
2017-06-27T09:56:44.636Z,50.70
2017-06-27T09:59:12.896Z,51.10
2017-06-27T10:01:41.184Z,50.50
2017-06-27T10:04:09.459Z,50.20
2017-06-27T10:06:37.733Z,51.70
2017-06-27T10:09:05.993Z,51.00
2017-06-27T10:11:34.299Z,50.40
2017-06-27T10:14:02.569Z,50.20
2017-06-27T10:16:30.847Z,50.30
2017-06-27T10:18:59.146Z,50.20
2017-06-27T10:21:27.413Z,48.30
2017-06-27T10:23:55.727Z,50.70
2017-06-27T10:26:24.799Z,51.30
2017-06-27T10:28:53.094Z,51.20
2017-06-27T10:31:21.367Z,52.00
2017-06-27T10:33:49.619Z,53.60
2017-06-27T10:36:17.959Z,51.60
2017-06-27T10:38:46.212Z,50.20
2017-06-27T10:41:14.601Z,50.10
2017-06-27T10:43:42.875Z,50.30
2017-06-27T10:46:11.139Z,50.30
2017-06-27T10:48:39.426Z,49.40
2017-06-27T10:51:07.675Z,52.10
2017-06-27T10:53:35.980Z,49.60
2017-06-27T10:56:04.265Z,50.60
2017-06-27T10:58:32.512Z,51.60
2017-06-27T11:01:00.797Z,49.90
2017-06-27T11:03:29.060Z,50.30
2017-06-27T11:05:57.381Z,49.40
2017-06-27T11:08:25.644Z,50.20
2017-06-27T11:10:53.903Z,47.20
2017-06-27T11:13:22.171Z,49.20
2017-06-27T11:15:50.440Z,48.70
2017-06-27T11:18:18.769Z,46.40
2017-06-27T11:20:47.038Z,48.20
2017-06-27T11:23:15.294Z,48.60
2017-06-27T11:25:43.585Z,46.30
2017-06-27T11:28:11.844Z,45.50
2017-06-27T11:30:40.148Z,45.60
2017-06-27T11:33:08.448Z,45.70
2017-06-27T11:35:37.489Z,46.40
2017-06-27T11:38:05.780Z,46.30
2017-06-27T11:40:34.036Z,49.10
2017-06-27T11:43:02.359Z,46.50
2017-06-27T11:45:30.620Z,47.30
2017-06-27T11:47:58.865Z,45.90
2017-06-27T11:50:27.145Z,46.10
2017-06-27T11:52:55.414Z,46.60
2017-06-27T11:55:23.713Z,45.70
2017-06-27T11:57:51.978Z,48.30
2017-06-27T12:00:32.057Z,48.00
2017-06-27T12:03:00.303Z,45.50
2017-06-27T12:05:55.417Z,45.20
2017-06-27T12:08:23.675Z,45.20
2017-06-27T12:10:51.954Z,45.00
2017-06-27T12:13:20.237Z,44.60
2017-06-27T12:15:48.564Z,43.90
2017-06-27T12:18:16.854Z,43.20
2017-06-27T12:20:45.115Z,42.70
2017-06-27T12:23:13.439Z,42.10
2017-06-27T12:25:41.696Z,40.30
2017-06-27T12:28:09.970Z,40.50
2017-06-27T12:30:38.392Z,41.20
2017-06-27T12:33:06.681Z,41.70
2017-06-27T12:35:35.011Z,40.20
2017-06-27T12:38:03.264Z,40.40
2017-06-27T12:40:31.537Z,41.00
2017-06-27T12:42:59.816Z,42.00
2017-06-27T12:45:28.128Z,40.70
2017-06-27T12:47:56.404Z,40.50
2017-06-27T12:50:24.664Z,38.80
2017-06-27T12:52:52.927Z,36.40
2017-06-27T12:55:21.187Z,34.80
2017-06-27T12:57:50.253Z,34.50
2017-06-27T13:00:18.613Z,34.50
2017-06-27T13:02:46.876Z,33.30
2017-06-27T13:05:15.172Z,33.60
2017-06-27T13:07:43.474Z,32.40
2017-06-27T13:10:11.871Z,32.90
2017-06-27T13:12:40.908Z,32.90
2017-06-27T13:15:09.188Z,32.80
2017-06-27T13:17:37.472Z,30.00
2017-06-27T13:20:05.728Z,30.00
2017-06-27T13:22:34.037Z,30.50
2017-06-27T13:25:02.320Z,28.30
2017-06-27T13:27:30.579Z,28.30
2017-06-27T13:29:58.850Z,28.60
2017-06-27T13:32:27.120Z,29.50
2017-06-27T13:34:55.559Z,30.70
2017-06-27T13:37:23.802Z,31.40
2017-06-27T13:39:52.078Z,32.90
2017-06-27T13:42:20.346Z,31.60
2017-06-27T13:44:48.602Z,32.50
2017-06-27T13:47:16.905Z,31.60
2017-06-27T13:49:45.157Z,31.30
2017-06-27T13:52:13.446Z,29.70
2017-06-27T13:54:41.703Z,31.10
2017-06-27T13:57:09.997Z,30.00
2017-06-27T13:59:38.261Z,30.00
2017-06-27T14:02:06.627Z,31.80
2017-06-27T14:04:34.938Z,29.10
2017-06-27T14:07:04.116Z,27.30
2017-06-27T14:09:32.391Z,27.70
2017-06-27T14:12:00.682Z,27.60
2017-06-27T14:14:28.952Z,27.40
2017-06-27T14:16:57.326Z,28.90
2017-06-27T14:19:25.600Z,29.90
2017-06-27T14:21:53.854Z,30.40
2017-06-27T14:24:22.174Z,31.10
2017-06-27T14:26:51.210Z,32.40
2017-06-27T14:29:19.533Z,32.40
2017-06-27T14:31:47.899Z,31.50
2017-06-27T14:34:16.155Z,28.90
2017-06-27T14:36:44.465Z,28.60
2017-06-27T14:39:12.839Z,28.70
2017-06-27T14:41:41.091Z,27.70
2017-06-27T14:44:09.511Z,27.90
2017-06-27T14:46:37.772Z,28.30
2017-06-27T14:49:06.036Z,28.20
2017-06-27T14:51:34.313Z,27.80
2017-06-27T14:54:02.591Z,28.90
2017-06-27T14:56:30.896Z,28.70
2017-06-27T14:58:59.142Z,29.20
2017-06-27T15:01:27.427Z,30.40
2017-06-27T15:03:56.594Z,30.90
2017-06-27T15:06:24.874Z,30.00
2017-06-27T15:08:53.172Z,29.50
2017-06-27T15:11:21.434Z,29.10
2017-06-27T15:13:49.687Z,28.40
2017-06-27T15:16:17.972Z,30.00
2017-06-27T15:18:46.245Z,29.40
2017-06-27T15:21:14.528Z,29.50
2017-06-27T15:23:42.802Z,30.00
2017-06-27T15:26:11.086Z,30.70
2017-06-27T15:28:39.342Z,30.40
2017-06-27T15:31:08.386Z,32.20
2017-06-27T15:33:36.681Z,32.20
2017-06-27T15:36:04.967Z,30.70
2017-06-27T15:38:33.215Z,30.00
2017-06-27T15:41:01.522Z,30.60
2017-06-27T15:43:29.785Z,30.60
2017-06-27T15:45:58.052Z,30.50
2017-06-27T15:48:26.331Z,30.20
2017-06-27T15:50:54.620Z,30.70
2017-06-27T15:53:22.868Z,30.40
2017-06-27T15:55:52.038Z,31.20
2017-06-27T15:58:21.060Z,30.40
2017-06-27T16:00:49.405Z,30.40
2017-06-27T16:03:19.369Z,28.80
2017-06-27T16:05:47.631Z,28.70
2017-06-27T16:08:15.957Z,30.00
2017-06-27T16:10:44.228Z,30.90
2017-06-27T16:13:12.508Z,30.10
2017-06-27T16:15:40.777Z,30.40
2017-06-27T16:18:09.062Z,30.50
2017-06-27T16:20:37.386Z,31.60
2017-06-27T16:23:05.630Z,31.40
2017-06-27T16:25:34.656Z,30.80
2017-06-27T16:28:02.951Z,30.80
2017-06-27T16:30:31.199Z,30.40
2017-06-27T16:32:59.603Z,31.40
2017-06-27T16:35:27.860Z,32.30
2017-06-27T16:37:56.139Z,33.50
2017-06-27T16:40:24.413Z,32.60
2017-06-27T16:42:52.677Z,32.50
2017-06-27T16:45:21.067Z,33.20
2017-06-27T16:47:49.315Z,33.80
2017-06-27T16:50:17.584Z,33.50
2017-06-27T16:52:45.896Z,33.10
2017-06-27T16:55:14.161Z,32.60
2017-06-27T16:57:43.204Z,33.50
2017-06-27T17:00:11.493Z,33.40
2017-06-27T17:02:39.758Z,33.40
2017-06-27T17:05:08.021Z,33.70
2017-06-27T17:07:36.292Z,34.00
2017-06-27T17:10:04.556Z,33.10
2017-06-27T17:12:32.863Z,33.10
2017-06-27T17:15:01.133Z,32.20
2017-06-27T17:17:29.406Z,32.50
2017-06-27T17:19:57.713Z,31.90
2017-06-27T17:22:26.010Z,31.80
2017-06-27T17:24:54.260Z,32.80
2017-06-27T17:27:22.624Z,32.90
2017-06-27T17:29:50.919Z,33.50
2017-06-27T17:32:19.176Z,33.00
2017-06-27T17:34:47.454Z,33.40
2017-06-27T17:37:15.730Z,33.30
2017-06-27T17:39:44.024Z,34.10
2017-06-27T17:42:12.317Z,34.20
2017-06-27T17:44:40.681Z,34.60
2017-06-27T17:47:08.946Z,35.10
2017-06-27T17:49:38.017Z,35.60
2017-06-27T17:52:06.331Z,36.30
2017-06-27T17:54:34.612Z,36.00
2017-06-27T17:57:02.865Z,36.50
2017-06-27T17:59:31.145Z,35.90
2017-06-27T18:01:59.443Z,36.40
2017-06-27T18:04:27.820Z,35.70
2017-06-27T18:06:56.082Z,37.70
2017-06-27T18:09:24.475Z,38.70
2017-06-27T18:11:52.738Z,38.90
2017-06-27T18:14:21.036Z,39.30
2017-06-27T18:16:50.099Z,39.90
2017-06-27T18:19:18.467Z,39.90
2017-06-27T18:21:46.752Z,40.50
2017-06-27T18:24:15.138Z,41.60
2017-06-27T18:26:43.379Z,41.20
2017-06-27T18:29:11.660Z,41.40
2017-06-27T18:31:39.921Z,42.10
2017-06-27T18:34:08.255Z,42.40
2017-06-27T18:36:36.536Z,44.00
2017-06-27T18:39:04.807Z,44.70
2017-06-27T18:41:33.185Z,45.00
2017-06-27T18:44:02.339Z,45.90
2017-06-27T18:46:30.600Z,45.90
2017-06-27T18:48:58.990Z,45.80
2017-06-27T18:51:27.264Z,46.20
2017-06-27T18:53:55.644Z,48.00
2017-06-27T18:56:24.007Z,48.80
2017-06-27T18:58:53.112Z,50.00
2017-06-27T19:01:21.417Z,50.50
2017-06-27T19:03:50.496Z,53.00
2017-06-27T19:06:19.065Z,53.00
2017-06-27T19:08:48.168Z,54.70
2017-06-27T19:11:16.438Z,55.10
2017-06-27T19:13:44.711Z,55.40
2017-06-27T19:16:12.979Z,55.90
2017-06-27T19:18:42.045Z,57.30
2017-06-27T19:21:10.330Z,57.20
2017-06-27T19:23:38.603Z,57.00
2017-06-27T19:26:06.870Z,57.80
2017-06-27T19:28:35.154Z,58.00
2017-06-27T19:31:03.419Z,58.50
2017-06-27T19:33:31.716Z,59.10
2017-06-27T19:36:00.080Z,60.80
2017-06-27T19:38:28.380Z,62.30
2017-06-27T19:40:56.651Z,60.90
2017-06-27T19:43:25.003Z,61.50
2017-06-27T19:45:53.308Z,64.00
2017-06-27T19:48:21.665Z,64.00
2017-06-27T19:50:50.051Z,65.50
2017-06-27T19:53:18.347Z,64.90
2017-06-27T19:55:47.416Z,66.30
2017-06-27T19:58:15.678Z,65.40
2017-06-27T20:00:43.970Z,65.90
2017-06-27T20:03:12.356Z,66.40
2017-06-27T20:05:41.655Z,66.70
2017-06-27T20:08:09.936Z,66.60
2017-06-27T20:10:38.312Z,66.20
2017-06-27T20:13:06.691Z,67.10
2017-06-27T20:15:34.965Z,68.50
2017-06-27T20:18:03.269Z,69.30
2017-06-27T20:20:32.310Z,68.40
2017-06-27T20:23:00.716Z,68.50
2017-06-27T20:25:28.977Z,69.70
2017-06-27T20:27:57.231Z,70.30
2017-06-27T20:30:25.512Z,70.30
2017-06-27T20:32:53.815Z,72.00
2017-06-27T20:35:22.141Z,72.50
2017-06-27T20:37:51.211Z,72.20
2017-06-27T20:40:19.578Z,72.10
2017-06-27T20:42:47.860Z,73.50
2017-06-27T20:45:16.131Z,74.50
2017-06-27T20:47:44.442Z,74.50
2017-06-27T20:50:13.473Z,74.60
2017-06-27T20:52:41.730Z,74.50
2017-06-27T20:55:10.047Z,73.50
2017-06-27T20:57:38.441Z,74.40
2017-06-27T21:00:06.724Z,74.10
2017-06-27T21:02:35.084Z,74.30
2017-06-27T21:05:03.486Z,73.30
2017-06-27T21:07:31.744Z,74.10
2017-06-27T21:10:00.131Z,73.60
2017-06-27T21:12:28.407Z,73.70
2017-06-27T21:14:56.684Z,73.70
2017-06-27T21:17:25.051Z,73.20
2017-06-27T21:19:53.352Z,72.60
2017-06-27T21:22:21.616Z,72.40
2017-06-27T21:24:49.996Z,73.90
2017-06-27T21:27:18.367Z,74.40
2017-06-27T21:29:46.636Z,73.50
2017-06-27T21:32:14.933Z,74.90
2017-06-27T21:34:43.203Z,75.00
2017-06-27T21:37:11.567Z,74.90
2017-06-27T21:39:39.856Z,74.90
2017-06-27T21:42:08.146Z,74.40
2017-06-27T21:44:36.429Z,73.50
2017-06-27T21:47:04.796Z,74.30
2017-06-27T21:49:33.184Z,73.60
2017-06-27T21:52:01.452Z,74.80
2017-06-27T21:54:29.726Z,73.30
2017-06-27T21:56:58.052Z,74.00
2017-06-27T21:59:26.311Z,74.40
2017-06-27T22:01:55.372Z,74.10
2017-06-27T22:04:23.627Z,73.80
2017-06-27T22:06:51.903Z,74.10
2017-06-27T22:09:20.174Z,73.40
2017-06-27T22:11:48.480Z,74.70
2017-06-27T22:14:16.756Z,74.30
2017-06-27T22:16:45.143Z,74.90
2017-06-27T22:19:13.405Z,73.00
2017-06-27T22:21:41.658Z,73.80
2017-06-27T22:24:09.934Z,74.30
2017-06-27T22:26:38.182Z,75.40
2017-06-27T22:29:07.309Z,73.80
2017-06-27T22:31:35.726Z,73.80
2017-06-27T22:34:03.967Z,74.40
2017-06-27T22:36:32.244Z,74.20
2017-06-27T22:39:00.504Z,75.30
2017-06-27T22:41:28.866Z,75.50
2017-06-27T22:43:57.887Z,75.40
2017-06-27T22:46:26.147Z,75.30
2017-06-27T22:48:54.428Z,75.90
2017-06-27T22:51:22.840Z,75.80
2017-06-27T22:53:51.156Z,75.30
2017-06-27T22:56:19.619Z,76.00
2017-06-27T22:58:47.901Z,74.90
2017-06-27T23:01:16.245Z,75.40
2017-06-27T23:03:44.655Z,76.20
2017-06-27T23:06:12.939Z,77.60
2017-06-27T23:08:41.220Z,77.50
2017-06-27T23:11:09.584Z,77.10
2017-06-27T23:13:37.879Z,76.00
2017-06-27T23:16:06.231Z,77.70
2017-06-27T23:18:34.623Z,76.60
2017-06-27T23:21:02.875Z,76.70
2017-06-27T23:23:31.196Z,76.80
2017-06-27T23:25:59.553Z,77.00
2017-06-27T23:28:27.820Z,77.40
2017-06-27T23:30:56.210Z,76.80
2017-06-27T23:33:24.493Z,77.80
2017-06-27T23:35:52.748Z,77.80
2017-06-27T23:38:21.045Z,78.30
2017-06-27T23:40:49.322Z,77.20
2017-06-27T23:43:17.624Z,78.40
2017-06-27T23:45:46.674Z,77.70
2017-06-27T23:48:14.927Z,77.60
2017-06-27T23:50:43.267Z,77.90
2017-06-27T23:53:11.628Z,77.30
2017-06-27T23:55:39.999Z,76.90
2017-06-27T23:58:08.272Z,76.60
